Sant Vicenc dels Horts, Spain
Current Conditions -  °F | °C
As of 2:30 AM on Friday 19 Dec 2014 (Local Time) from LEBL Reporting Station
Clear Clear  
Wind Chill: 54°   Ceiling: Unl
Heat Index: 54°   Visibility: 6mi
Dew Point: 48°   Wind: 14mph
Humidity: 82%   Direction: 330°NNW
Pressure: 30.3"   Gusts: NA
Location:  41.39°N, 2.01°E
Report Text: LEBL 190130Z 33012KT CAVOK 12/09 Q1026 NOSIG
Loading
Personal Weather Stations






























Interactive Weather Map New forecast layout! Learn more

10-Day Weather Forecast

Advertisements
Track Severe Weather on mobile